createdAt,value
2023-09-20T00:00:37.726Z,3.08
2023-09-20T00:03:17.656Z,2.50
2023-09-20T00:05:48.881Z,2.92
2023-09-20T00:08:18.057Z,3.08
2023-09-20T00:10:47.879Z,3.33
2023-09-20T00:13:17.869Z,2.97
2023-09-20T00:15:46.825Z,2.83
2023-09-20T00:19:11.832Z,2.55
2023-09-20T00:21:45.660Z,2.72
2023-09-20T00:24:14.861Z,3.10
2023-09-20T00:26:43.651Z,2.53
2023-09-20T00:29:13.630Z,2.63
2023-09-20T00:31:42.065Z,3.00
2023-09-20T00:34:10.611Z,2.72
2023-09-20T00:36:39.014Z,2.72
2023-09-20T00:39:10.993Z,3.13
2023-09-20T00:41:39.613Z,2.83
2023-09-20T00:44:07.978Z,2.25
2023-09-20T00:46:39.907Z,2.33
2023-09-20T00:49:08.364Z,2.63
2023-09-20T00:51:36.748Z,2.38
2023-09-20T00:54:05.672Z,2.28
2023-09-20T00:56:35.838Z,2.47
2023-09-20T00:59:08.169Z,2.80
2023-09-20T01:01:42.031Z,2.80
2023-09-20T01:04:11.964Z,2.97
2023-09-20T01:06:42.702Z,2.30
2023-09-20T01:09:11.245Z,2.67
2023-09-20T01:11:39.788Z,2.42
2023-09-20T01:14:08.101Z,2.33
2023-09-20T01:16:37.729Z,2.78
2023-09-20T01:19:07.064Z,2.25
2023-09-20T01:21:44.162Z,2.75
2023-09-20T01:24:14.016Z,2.40
2023-09-20T01:26:43.459Z,2.50
2023-09-20T01:29:13.505Z,2.05
2023-09-20T01:31:42.915Z,2.10
2023-09-20T01:34:12.027Z,2.20
2023-09-20T01:36:42.219Z,1.88
2023-09-20T01:39:11.281Z,1.63
2023-09-20T01:41:40.141Z,1.83
2023-09-20T01:44:09.026Z,1.85
2023-09-20T01:46:38.458Z,1.52
2023-09-20T01:49:08.066Z,1.50
2023-09-20T01:51:36.378Z,2.30
2023-09-20T01:54:06.670Z,2.10
2023-09-20T01:56:36.182Z,2.28
2023-09-20T01:59:07.088Z,2.53
2023-09-20T02:01:39.027Z,3.03
2023-09-20T02:04:07.634Z,2.65
2023-09-20T02:06:35.929Z,2.95
2023-09-20T02:09:05.835Z,2.08
2023-09-20T02:11:35.921Z,2.13
2023-09-20T02:14:04.067Z,2.55
2023-09-20T02:16:33.385Z,2.58
2023-09-20T02:19:02.608Z,2.60
2023-09-20T02:21:32.673Z,2.63
2023-09-20T02:24:01.677Z,2.80
2023-09-20T02:26:31.629Z,2.97
2023-09-20T02:29:01.180Z,2.60
2023-09-20T02:31:29.694Z,2.75
2023-09-20T02:33:58.728Z,2.45
2023-09-20T02:36:28.251Z,2.58
2023-09-20T02:38:57.345Z,3.13
2023-09-20T02:41:27.247Z,2.78
2023-09-20T02:43:56.169Z,2.60
2023-09-20T02:46:25.868Z,2.85
2023-09-20T02:48:54.390Z,2.90
2023-09-20T02:51:25.258Z,2.67
2023-09-20T02:53:53.362Z,2.83
2023-09-20T02:56:21.639Z,2.80
2023-09-20T02:58:50.704Z,2.97
2023-09-20T03:01:19.178Z,3.17
2023-09-20T03:03:48.923Z,2.60
2023-09-20T03:06:17.625Z,2.67
2023-09-20T03:08:46.408Z,2.75
2023-09-20T03:11:23.258Z,2.97
2023-09-20T03:13:51.423Z,2.70
2023-09-20T03:16:20.695Z,2.55
2023-09-20T03:18:52.029Z,2.88
2023-09-20T03:21:23.534Z,2.53
2023-09-20T03:23:52.180Z,2.90
2023-09-20T03:26:20.627Z,3.20
2023-09-20T03:28:49.965Z,2.70
2023-09-20T03:31:24.474Z,2.97
2023-09-20T03:33:57.258Z,2.70
2023-09-20T03:36:28.825Z,3.13
2023-09-20T03:38:59.289Z,2.90
2023-09-20T03:41:27.826Z,3.08
2023-09-20T03:43:57.669Z,3.30
2023-09-20T03:46:26.447Z,3.35
2023-09-20T03:48:56.732Z,3.33
2023-09-20T03:51:26.239Z,3.10
2023-09-20T03:53:54.585Z,3.15
2023-09-20T03:56:26.685Z,3.72
2023-09-20T03:58:56.577Z,3.08
2023-09-20T04:01:25.439Z,3.28
2023-09-20T04:03:54.009Z,3.80
2023-09-20T04:06:27.665Z,2.47
2023-09-20T04:08:56.078Z,3.08
2023-09-20T04:11:24.571Z,3.30
2023-09-20T04:13:54.215Z,3.13
2023-09-20T04:16:24.246Z,2.95
2023-09-20T04:18:53.210Z,2.85
2023-09-20T04:21:24.893Z,3.03
2023-09-20T04:23:53.715Z,3.22
2023-09-20T04:26:22.666Z,3.22
2023-09-20T04:28:55.110Z,3.10
2023-09-20T04:31:24.357Z,2.90
2023-09-20T04:33:53.809Z,3.05
2023-09-20T04:36:24.181Z,3.22
2023-09-20T04:38:52.635Z,3.88
2023-09-20T04:41:21.207Z,2.90
2023-09-20T04:43:49.932Z,3.20
2023-09-20T04:46:20.664Z,2.75
2023-09-20T04:48:48.895Z,2.95
2023-09-20T04:51:17.312Z,2.85
2023-09-20T04:53:47.134Z,3.17
2023-09-20T04:56:17.823Z,2.88
2023-09-20T04:58:46.610Z,2.92
2023-09-20T05:01:15.122Z,3.17
2023-09-20T05:03:45.124Z,3.55
2023-09-20T05:06:14.310Z,2.88
2023-09-20T05:08:43.309Z,3.03
2023-09-20T05:11:15.025Z,3.00
2023-09-20T05:13:45.077Z,3.25
2023-09-20T05:16:14.961Z,2.97
2023-09-20T05:18:44.676Z,2.85
2023-09-20T05:21:14.304Z,2.97
2023-09-20T05:23:43.675Z,3.10
2023-09-20T05:26:13.381Z,3.92
2023-09-20T05:28:42.315Z,3.05
2023-09-20T05:31:11.484Z,3.15
2023-09-20T05:33:40.377Z,3.15
2023-09-20T05:36:09.857Z,3.20
2023-09-20T05:38:40.455Z,2.70
2023-09-20T05:41:11.977Z,3.28
2023-09-20T05:43:43.897Z,2.90
2023-09-20T05:46:13.443Z,3.13
2023-09-20T05:48:45.145Z,2.63
2023-09-20T05:51:17.333Z,2.60
2023-09-20T05:53:45.961Z,2.67
2023-09-20T05:56:16.110Z,2.80
2023-09-20T05:58:45.893Z,2.55
2023-09-20T06:01:19.559Z,2.63
2023-09-20T06:03:48.948Z,3.20
2023-09-20T06:06:17.739Z,3.38
2023-09-20T06:08:47.189Z,3.30
2023-09-20T06:11:15.461Z,4.72
2023-09-20T06:13:45.507Z,4.43
2023-09-20T06:16:13.848Z,4.15
2023-09-20T06:18:58.618Z,4.25
2023-09-20T06:21:33.075Z,4.43
2023-09-20T06:24:04.167Z,3.88
2023-09-20T06:26:33.187Z,3.80
2023-09-20T06:29:04.059Z,3.67
2023-09-20T06:31:32.540Z,4.30
2023-09-20T06:34:01.390Z,3.97
2023-09-20T06:36:30.295Z,3.58
2023-09-20T06:38:59.724Z,4.28
2023-09-20T06:41:29.118Z,3.70
2023-09-20T06:43:59.142Z,3.88
2023-09-20T06:46:28.758Z,4.28
2023-09-20T06:48:58.990Z,4.10
2023-09-20T06:51:27.416Z,3.85
2023-09-20T06:54:00.120Z,4.30
2023-09-20T06:56:28.723Z,4.13
2023-09-20T06:58:57.495Z,4.40
2023-09-20T07:01:26.594Z,4.47
2023-09-20T07:03:59.816Z,4.30
2023-09-20T07:06:32.893Z,4.63
2023-09-20T07:09:01.501Z,3.92
2023-09-20T07:11:30.757Z,4.65
2023-09-20T07:14:00.888Z,4.28
2023-09-20T07:16:31.596Z,4.47
2023-09-20T07:19:05.531Z,4.40
2023-09-20T07:21:38.034Z,4.20
2023-09-20T07:24:07.965Z,4.25
2023-09-20T07:26:39.965Z,3.97
2023-09-20T07:29:16.969Z,4.13
2023-09-20T07:31:46.548Z,3.92
2023-09-20T07:34:19.274Z,3.65
2023-09-20T07:36:51.029Z,3.90
2023-09-20T07:41:38.074Z,3.92
2023-09-20T07:44:08.443Z,3.38
2023-09-20T07:46:40.511Z,3.63
2023-09-20T07:49:11.517Z,4.03
2023-09-20T07:51:40.394Z,3.53
2023-09-20T07:54:11.399Z,3.78
2023-09-20T07:56:44.209Z,3.72
2023-09-20T08:01:43.416Z,3.22
2023-09-20T08:04:12.256Z,3.05
2023-09-20T08:06:41.787Z,3.13
2023-09-20T08:09:10.166Z,3.25
2023-09-20T08:11:39.320Z,2.85
2023-09-20T08:14:08.982Z,3.17
2023-09-20T08:17:00.293Z,3.03
2023-09-20T08:19:32.112Z,2.83
2023-09-20T08:22:00.302Z,3.00
2023-09-20T08:24:45.893Z,3.13
2023-09-20T08:27:31.510Z,2.65
2023-09-20T08:30:18.613Z,3.10
2023-09-20T08:33:04.166Z,2.90
2023-09-20T08:35:50.098Z,3.05
2023-09-20T08:38:35.692Z,2.80
2023-09-20T08:41:21.942Z,2.88
2023-09-20T08:44:07.732Z,2.85
2023-09-20T08:46:56.334Z,2.92
2023-09-20T08:49:51.157Z,3.08
2023-09-20T08:52:42.628Z,3.42
2023-09-20T08:55:29.610Z,2.65
2023-09-20T08:58:16.798Z,2.80
2023-09-20T09:00:48.361Z,2.60
2023-09-20T09:03:19.003Z,2.63
2023-09-20T09:05:48.495Z,2.42
2023-09-20T09:08:16.685Z,2.30
2023-09-20T09:10:45.132Z,2.13
2023-09-20T09:13:13.257Z,2.13
2023-09-20T09:15:41.930Z,2.78
2023-09-20T09:18:18.147Z,1.90
2023-09-20T09:20:52.858Z,1.92
2023-09-20T09:23:36.769Z,1.77
2023-09-20T09:26:05.578Z,2.40
2023-09-20T09:28:33.960Z,2.38
2023-09-20T09:31:03.331Z,1.90
2023-09-20T09:33:32.327Z,2.58
2023-09-20T09:36:02.307Z,2.22
2023-09-20T09:38:34.332Z,2.00
2023-09-20T09:41:04.732Z,2.00
2023-09-20T09:43:37.678Z,2.22
2023-09-20T09:46:09.290Z,2.15
2023-09-20T09:51:09.137Z,1.90
2023-09-20T09:53:41.428Z,1.55
2023-09-20T09:56:14.971Z,2.15
2023-09-20T09:58:43.436Z,1.88
2023-09-20T10:01:12.387Z,1.85
2023-09-20T10:03:45.309Z,2.30
2023-09-20T10:06:22.552Z,2.00
2023-09-20T10:08:55.126Z,1.88
2023-09-20T10:11:25.181Z,1.88
2023-09-20T10:13:54.083Z,1.80
2023-09-20T10:16:23.797Z,1.83
2023-09-20T10:19:01.661Z,1.90
2023-09-20T10:21:34.133Z,1.95
2023-09-20T10:24:09.280Z,2.00
2023-09-20T10:26:41.583Z,1.80
2023-09-20T10:29:28.709Z,1.70
2023-09-20T10:31:58.110Z,1.50
2023-09-20T10:34:27.472Z,1.90
2023-09-20T10:36:59.011Z,1.80
2023-09-20T10:39:30.658Z,1.83
2023-09-20T10:42:11.235Z,1.92
2023-09-20T10:44:43.203Z,2.00
2023-09-20T10:47:14.687Z,1.80
2023-09-20T10:49:53.456Z,1.63
2023-09-20T10:52:59.149Z,1.67
2023-09-20T10:55:36.806Z,1.65
2023-09-20T10:58:06.170Z,1.80
2023-09-20T11:00:36.117Z,1.63
2023-09-20T11:03:09.696Z,1.70
2023-09-20T11:05:39.571Z,1.58
2023-09-20T11:08:15.191Z,2.00
2023-09-20T11:10:47.526Z,1.63
2023-09-20T11:13:16.976Z,1.80
2023-09-20T11:15:48.278Z,2.00
2023-09-20T11:18:18.563Z,1.73
2023-09-20T11:20:49.366Z,1.73
2023-09-20T11:23:19.385Z,1.45
2023-09-20T11:25:49.634Z,1.88
2023-09-20T11:28:19.123Z,1.75
2023-09-20T11:30:53.013Z,1.70
2023-09-20T11:33:32.026Z,1.85
2023-09-20T11:36:01.017Z,1.75
2023-09-20T11:38:31.600Z,1.67
2023-09-20T11:41:01.215Z,1.65
2023-09-20T11:43:31.141Z,1.65
2023-09-20T11:46:01.844Z,1.35
2023-09-20T11:48:31.375Z,1.63
2023-09-20T11:50:59.803Z,1.40
2023-09-20T11:53:32.593Z,1.92
2023-09-20T11:56:04.189Z,1.83
2023-09-20T11:58:39.634Z,1.58
2023-09-20T12:01:09.793Z,1.92
2023-09-20T12:03:38.663Z,1.60
2023-09-20T12:06:07.492Z,1.80
2023-09-20T12:08:38.307Z,1.60
2023-09-20T12:11:08.921Z,2.35
2023-09-20T12:13:37.310Z,2.00
2023-09-20T12:16:06.250Z,1.98
2023-09-20T12:18:35.304Z,1.60
2023-09-20T12:21:08.580Z,1.63
2023-09-20T12:23:40.259Z,2.72
2023-09-20T12:26:09.941Z,1.63
2023-09-20T12:28:39.595Z,1.40
2023-09-20T12:31:10.095Z,1.58
2023-09-20T12:33:39.901Z,1.90
2023-09-20T12:36:12.200Z,1.40
2023-09-20T12:38:42.165Z,1.60
2023-09-20T12:41:10.814Z,1.50
2023-09-20T12:43:42.524Z,1.42
2023-09-20T12:46:14.722Z,1.52
2023-09-20T12:48:46.151Z,1.27
2023-09-20T12:51:14.375Z,1.40
2023-09-20T12:53:45.173Z,2.00
2023-09-20T12:56:17.292Z,1.48
2023-09-20T12:58:47.806Z,1.30
2023-09-20T13:01:16.312Z,1.80
2023-09-20T13:03:45.959Z,1.67
2023-09-20T13:06:15.195Z,1.65
2023-09-20T13:08:45.461Z,1.33
2023-09-20T13:11:15.726Z,1.50
2023-09-20T13:13:44.714Z,1.70
2023-09-20T13:16:15.810Z,1.45
2023-09-20T13:18:45.584Z,1.77
2023-09-20T13:21:13.829Z,1.17
2023-09-20T13:23:42.476Z,1.25
2023-09-20T13:26:12.924Z,1.40
2023-09-20T13:28:42.981Z,1.33
2023-09-20T13:31:13.363Z,1.50
2023-09-20T13:33:46.423Z,1.58
2023-09-20T13:36:17.322Z,1.48
2023-09-20T13:38:45.949Z,1.48
2023-09-20T13:41:16.778Z,1.38
2023-09-20T13:43:45.556Z,1.35
2023-09-20T13:46:15.764Z,1.67
2023-09-20T13:48:45.233Z,1.52
2023-09-20T13:51:17.982Z,1.90
2023-09-20T13:53:47.177Z,1.45
2023-09-20T13:56:20.153Z,1.83
2023-09-20T13:58:49.633Z,1.60
2023-09-20T14:01:19.816Z,1.38
2023-09-20T14:03:50.007Z,1.50
2023-09-20T14:06:19.153Z,1.70
2023-09-20T14:08:48.093Z,3.60
2023-09-20T14:11:18.515Z,4.43
2023-09-20T14:13:49.531Z,2.38
2023-09-20T14:16:23.985Z,2.17
2023-09-20T14:18:52.620Z,1.58
2023-09-20T14:21:23.050Z,1.60
2023-09-20T14:23:51.994Z,1.88
2023-09-20T14:26:22.188Z,1.63
2023-09-20T14:28:51.394Z,1.88
2023-09-20T14:31:20.794Z,3.00
2023-09-20T14:33:52.496Z,2.17
2023-09-20T14:38:52.026Z,1.38
2023-09-20T14:41:24.684Z,1.63
2023-09-20T14:43:54.396Z,1.15
2023-09-20T14:46:23.041Z,1.63
2023-09-20T14:48:52.763Z,1.70
2023-09-20T14:51:22.044Z,2.15
2023-09-20T14:53:52.055Z,1.70
2023-09-20T14:56:22.473Z,1.45
2023-09-20T14:58:52.091Z,1.97
2023-09-20T15:01:21.903Z,2.38
2023-09-20T15:03:51.034Z,1.50
2023-09-20T15:06:19.894Z,1.40
2023-09-20T15:08:50.347Z,1.55
2023-09-20T15:11:19.408Z,1.80
2023-09-20T15:13:51.099Z,1.83
2023-09-20T15:18:56.939Z,1.27
2023-09-20T15:21:32.809Z,1.45
2023-09-20T15:24:04.431Z,1.50
2023-09-20T15:26:37.088Z,2.17
2023-09-20T15:29:08.391Z,2.05
2023-09-20T15:31:39.576Z,1.20
2023-09-20T15:34:10.089Z,2.13
2023-09-20T15:36:46.232Z,1.33
2023-09-20T15:39:21.777Z,1.25
2023-09-20T15:41:52.247Z,1.40
2023-09-20T15:44:22.355Z,2.17
2023-09-20T15:46:51.098Z,2.17
2023-09-20T15:49:20.086Z,3.30
2023-09-20T15:51:49.634Z,3.00
2023-09-20T15:54:21.389Z,4.88
2023-09-20T15:59:22.179Z,7.97
2023-09-20T16:01:50.978Z,8.68
2023-09-20T16:04:24.037Z,9.57
2023-09-20T16:06:52.574Z,10.85
2023-09-20T16:09:24.064Z,10.43
2023-09-20T16:11:54.269Z,9.00
2023-09-20T16:14:25.035Z,9.25
2023-09-20T16:16:55.687Z,8.27
2023-09-20T16:19:25.800Z,7.57
2023-09-20T16:22:15.774Z,9.18
2023-09-20T16:24:45.247Z,6.70
2023-09-20T16:27:14.229Z,5.18
2023-09-20T16:29:45.257Z,5.72
2023-09-20T16:34:45.185Z,6.50
2023-09-20T16:37:17.000Z,6.00
2023-09-20T16:39:45.953Z,5.13
2023-09-20T16:42:15.514Z,4.85
2023-09-20T16:44:45.917Z,4.43
2023-09-20T16:47:15.063Z,3.90
2023-09-20T16:49:44.401Z,3.70
2023-09-20T16:52:15.321Z,3.83
2023-09-20T16:54:44.261Z,3.47
2023-09-20T16:57:12.891Z,3.25
2023-09-20T16:59:44.079Z,3.53
2023-09-20T17:02:13.950Z,4.28
2023-09-20T17:04:43.025Z,3.40
2023-09-20T17:07:12.198Z,5.60
2023-09-20T17:09:40.956Z,3.90
2023-09-20T17:12:09.728Z,4.22
2023-09-20T17:14:40.288Z,3.35
2023-09-20T17:17:10.077Z,3.40
2023-09-20T17:19:40.151Z,3.78
2023-09-20T17:22:08.366Z,3.42
2023-09-20T17:24:37.673Z,3.30
2023-09-20T17:27:19.257Z,3.10
2023-09-20T17:29:59.037Z,3.10
2023-09-20T17:32:29.830Z,3.08
2023-09-20T17:34:59.812Z,2.85
2023-09-20T17:37:29.355Z,2.97
2023-09-20T17:39:57.633Z,2.95
2023-09-20T17:42:26.250Z,3.00
2023-09-20T17:44:55.295Z,3.47
2023-09-20T17:47:24.563Z,3.05
2023-09-20T17:49:54.430Z,3.17
2023-09-20T17:52:26.121Z,3.00
2023-09-20T17:54:57.016Z,2.78
2023-09-20T17:57:26.942Z,3.17
2023-09-20T17:59:55.636Z,3.35
2023-09-20T18:02:30.143Z,3.70
2023-09-20T18:05:01.664Z,3.65
2023-09-20T18:07:32.923Z,3.40
2023-09-20T18:10:07.244Z,3.50
2023-09-20T18:12:36.789Z,3.50
2023-09-20T18:15:06.169Z,3.33
2023-09-20T18:17:37.116Z,3.58
2023-09-20T18:20:10.404Z,3.42
2023-09-20T18:22:41.275Z,2.95
2023-09-20T18:25:12.221Z,3.00
2023-09-20T18:27:41.677Z,3.00
2023-09-20T18:30:11.979Z,3.78
2023-09-20T18:32:41.318Z,3.25
2023-09-20T18:35:12.548Z,3.30
2023-09-20T18:37:46.956Z,2.95
2023-09-20T18:40:19.617Z,3.30
2023-09-20T18:42:49.583Z,3.10
2023-09-20T18:45:22.058Z,4.10
2023-09-20T18:47:52.447Z,3.97
2023-09-20T18:50:24.592Z,3.17
2023-09-20T18:52:58.530Z,3.10
2023-09-20T18:55:29.661Z,3.50
2023-09-20T18:58:00.431Z,3.40
2023-09-20T19:00:31.460Z,3.13
2023-09-20T19:03:01.690Z,3.20
2023-09-20T19:05:32.315Z,3.30
2023-09-20T19:08:03.435Z,3.22
2023-09-20T19:10:32.727Z,3.83
2023-09-20T19:13:01.427Z,3.65
2023-09-20T19:15:30.588Z,3.38
2023-09-20T19:17:59.167Z,3.88
2023-09-20T19:20:30.361Z,3.75
2023-09-20T19:22:58.806Z,3.80
2023-09-20T19:25:33.418Z,3.55
2023-09-20T19:28:02.741Z,4.03
2023-09-20T19:30:34.362Z,3.55
2023-09-20T19:33:11.349Z,3.33
2023-09-20T19:35:40.058Z,4.35
2023-09-20T19:38:11.335Z,3.58
2023-09-20T19:40:45.891Z,3.75
2023-09-20T19:43:15.342Z,3.38
2023-09-20T19:45:47.160Z,3.85
2023-09-20T19:48:17.438Z,3.88
2023-09-20T19:50:47.587Z,3.33
2023-09-20T19:53:15.992Z,3.63
2023-09-20T19:55:46.361Z,3.72
2023-09-20T19:58:15.817Z,3.75
2023-09-20T20:00:47.824Z,3.72
2023-09-20T20:03:17.384Z,3.20
2023-09-20T20:05:49.461Z,3.53
2023-09-20T20:10:50.287Z,5.22
2023-09-20T20:13:19.687Z,12.70
2023-09-20T20:15:48.398Z,4.13
2023-09-20T20:18:19.104Z,3.13
2023-09-20T20:20:51.208Z,3.60
2023-09-20T20:23:21.012Z,3.78
2023-09-20T20:25:51.220Z,4.00
2023-09-20T20:28:20.279Z,4.05
2023-09-20T20:30:49.908Z,4.15
2023-09-20T20:33:18.588Z,3.58
2023-09-20T20:35:49.702Z,3.58
2023-09-20T20:38:19.051Z,3.70
2023-09-20T20:40:48.244Z,3.45
2023-09-20T20:43:18.300Z,3.70
2023-09-20T20:45:48.972Z,3.45
2023-09-20T20:48:17.751Z,3.20
2023-09-20T20:50:46.801Z,2.95
2023-09-20T20:53:21.587Z,4.05
2023-09-20T20:55:55.798Z,3.47
2023-09-20T20:58:26.002Z,4.13
2023-09-20T21:00:58.988Z,3.25
2023-09-20T21:03:28.538Z,4.45
2023-09-20T21:05:57.342Z,4.15
2023-09-20T21:08:25.770Z,4.35
2023-09-20T21:10:58.811Z,4.57
2023-09-20T21:13:28.844Z,4.05
2023-09-20T21:15:59.860Z,3.45
2023-09-20T21:18:28.410Z,3.50
2023-09-20T21:20:58.675Z,3.60
2023-09-20T21:23:27.060Z,3.50
2023-09-20T21:25:56.739Z,3.38
2023-09-20T21:28:25.361Z,3.58
2023-09-20T21:30:55.065Z,3.38
2023-09-20T21:33:24.466Z,3.08
2023-09-20T21:35:53.922Z,3.97
2023-09-20T21:38:23.538Z,3.63
2023-09-20T21:40:53.108Z,3.70
2023-09-20T21:43:22.111Z,3.47
2023-09-20T21:45:53.622Z,3.42
2023-09-20T21:50:53.342Z,3.53
2023-09-20T21:53:23.212Z,3.40
2023-09-20T21:55:52.123Z,3.53
2023-09-20T21:58:27.156Z,3.08
2023-09-20T22:00:57.335Z,4.65
2023-09-20T22:03:31.194Z,4.40
2023-09-20T22:06:00.749Z,3.50
2023-09-20T22:08:34.208Z,3.85
2023-09-20T22:11:05.726Z,9.18
2023-09-20T22:13:39.071Z,7.00
2023-09-20T22:16:08.246Z,12.68
2023-09-20T22:18:40.279Z,5.40
2023-09-20T22:21:13.834Z,3.75
2023-09-20T22:23:43.737Z,4.05
2023-09-20T22:26:38.018Z,10.13
2023-09-20T22:29:07.406Z,14.93
2023-09-20T22:31:37.333Z,3.88
2023-09-20T22:34:13.228Z,3.88
2023-09-20T22:36:51.956Z,4.90
2023-09-20T22:39:29.020Z,4.70
2023-09-20T22:41:58.247Z,3.15
2023-09-20T22:44:28.743Z,3.22
2023-09-20T22:46:58.055Z,2.95
2023-09-20T22:49:29.818Z,3.67
2023-09-20T22:52:01.309Z,3.30
2023-09-20T22:54:32.439Z,3.60
2023-09-20T22:57:01.363Z,3.80
2023-09-20T22:59:31.418Z,3.33
2023-09-20T23:02:00.341Z,3.30
2023-09-20T23:04:58.063Z,3.47
2023-09-20T23:07:30.337Z,3.42
2023-09-20T23:09:59.665Z,3.65
2023-09-20T23:12:29.471Z,3.28
2023-09-20T23:14:57.987Z,3.45
2023-09-20T23:17:27.015Z,3.50
2023-09-20T23:20:07.735Z,3.55
2023-09-20T23:22:39.682Z,3.63
2023-09-20T23:25:11.568Z,3.95
2023-09-20T23:30:12.295Z,3.33
2023-09-20T23:32:41.089Z,3.47
2023-09-20T23:35:10.468Z,3.15
2023-09-20T23:37:40.663Z,3.55
2023-09-20T23:40:13.219Z,3.53
2023-09-20T23:42:43.798Z,3.60
2023-09-20T23:45:14.501Z,3.55
2023-09-20T23:47:44.506Z,3.57
2023-09-20T23:50:15.757Z,3.33
2023-09-20T23:52:45.440Z,3.22
2023-09-20T23:55:17.092Z,3.25
2023-09-20T23:57:47.740Z,3.35
